sensor_id;sensor_type;location;lat;lon;timestamp;temperature;humidity
65470;DHT22;52067;50.710;14.492;2023-01-23T00:02:18;0.64;88.95
65470;DHT22;52067;50.710;14.492;2023-01-23T00:04:43;0.61;88.77
65470;DHT22;52067;50.710;14.492;2023-01-23T00:07:09;0.67;88.26
65470;DHT22;52067;50.710;14.492;2023-01-23T00:09:34;0.64;87.96
65470;DHT22;52067;50.710;14.492;2023-01-23T00:12:00;0.68;88.28
65470;DHT22;52067;50.710;14.492;2023-01-23T00:14:25;0.79;88.31
65470;DHT22;52067;50.710;14.492;2023-01-23T00:16:51;0.82;88.13
65470;DHT22;52067;50.710;14.492;2023-01-23T00:19:16;0.81;88.13
65470;DHT22;52067;50.710;14.492;2023-01-23T00:21:42;0.82;88.36
65470;DHT22;52067;50.710;14.492;2023-01-23T00:24:09;0.89;88.41
65470;DHT22;52067;50.710;14.492;2023-01-23T00:26:35;0.87;88.45
65470;DHT22;52067;50.710;14.492;2023-01-23T00:29:02;0.87;88.46
65470;DHT22;52067;50.710;14.492;2023-01-23T00:31:31;0.75;88.74
65470;DHT22;52067;50.710;14.492;2023-01-23T00:33:59;0.65;89.06
65470;DHT22;52067;50.710;14.492;2023-01-23T00:36:28;0.79;89.17
65470;DHT22;52067;50.710;14.492;2023-01-23T00:38:54;0.87;88.84
65470;DHT22;52067;50.710;14.492;2023-01-23T00:41:20;0.88;88.69
65470;DHT22;52067;50.710;14.492;2023-01-23T00:43:45;0.79;88.54
65470;DHT22;52067;50.710;14.492;2023-01-23T00:46:12;0.60;89.57
65470;DHT22;52067;50.710;14.492;2023-01-23T00:48:38;0.79;89.23
65470;DHT22;52067;50.710;14.492;2023-01-23T00:51:03;0.87;88.84
65470;DHT22;52067;50.710;14.492;2023-01-23T00:53:29;0.96;88.67
65470;DHT22;52067;50.710;14.492;2023-01-23T00:55:54;0.99;88.34
65470;DHT22;52067;50.710;14.492;2023-01-23T00:58:20;1.02;88.31
65470;DHT22;52067;50.710;14.492;2023-01-23T01:00:45;0.98;88.36
65470;DHT22;52067;50.710;14.492;2023-01-23T01:03:11;0.93;88.16
65470;DHT22;52067;50.710;14.492;2023-01-23T01:05:37;0.81;88.43
65470;DHT22;52067;50.710;14.492;2023-01-23T01:08:03;0.39;89.84
65470;DHT22;52067;50.710;14.492;2023-01-23T01:10:29;0.39;89.84
65470;DHT22;52067;50.710;14.492;2023-01-23T01:12:58;0.13;90.64
65470;DHT22;52067;50.710;14.492;2023-01-23T01:15:25;0.07;90.87
65470;DHT22;52067;50.710;14.492;2023-01-23T01:17:50;0.33;90.84
65470;DHT22;52067;50.710;14.492;2023-01-23T01:20:19;0.47;90.20
65470;DHT22;52067;50.710;14.492;2023-01-23T01:22:45;0.29;90.00
65470;DHT22;52067;50.710;14.492;2023-01-23T01:25:10;0.37;90.05
65470;DHT22;52067;50.710;14.492;2023-01-23T01:27:36;0.26;90.26
65470;DHT22;52067;50.710;14.492;2023-01-23T01:30:02;0.41;89.92
65470;DHT22;52067;50.710;14.492;2023-01-23T01:32:27;0.50;89.51
65470;DHT22;52067;50.710;14.492;2023-01-23T01:34:53;0.62;89.09
65470;DHT22;52067;50.710;14.492;2023-01-23T01:37:18;0.62;88.69
65470;DHT22;52067;50.710;14.492;2023-01-23T01:39:47;0.72;88.36
65470;DHT22;52067;50.710;14.492;2023-01-23T01:42:12;0.75;88.31
65470;DHT22;52067;50.710;14.492;2023-01-23T01:44:54;0.41;88.80
65470;DHT22;52067;50.710;14.492;2023-01-23T01:47:19;0.34;89.69
65470;DHT22;52067;50.710;14.492;2023-01-23T01:49:45;0.34;90.15
65470;DHT22;52067;50.710;14.492;2023-01-23T01:52:12;0.43;89.60
65470;DHT22;52067;50.710;14.492;2023-01-23T01:54:42;0.56;89.34
65470;DHT22;52067;50.710;14.492;2023-01-23T01:57:20;0.67;89.07
65470;DHT22;52067;50.710;14.492;2023-01-23T01:59:57;0.77;88.87
65470;DHT22;52067;50.710;14.492;2023-01-23T02:02:28;0.82;88.53
65470;DHT22;52067;50.710;14.492;2023-01-23T02:04:58;0.87;88.42
65470;DHT22;52067;50.710;14.492;2023-01-23T02:07:29;0.87;88.27
65470;DHT22;52067;50.710;14.492;2023-01-23T02:09:56;0.88;88.36
65470;DHT22;52067;50.710;14.492;2023-01-23T02:12:22;0.88;88.42
65470;DHT22;52067;50.710;14.492;2023-01-23T02:14:48;0.72;88.58
65470;DHT22;52067;50.710;14.492;2023-01-23T02:17:13;0.81;88.91
65470;DHT22;52067;50.710;14.492;2023-01-23T02:20:18;0.89;88.69
65470;DHT22;52067;50.710;14.492;2023-01-23T02:23:01;0.67;89.50
65470;DHT22;52067;50.710;14.492;2023-01-23T02:28:07;0.61;89.47
65470;DHT22;52067;50.710;14.492;2023-01-23T02:30:34;0.46;90.09
65470;DHT22;52067;50.710;14.492;2023-01-23T02:35:44;0.34;90.30
65470;DHT22;52067;50.710;14.492;2023-01-23T02:38:09;0.17;91.02
65470;DHT22;52067;50.710;14.492;2023-01-23T02:40:37;0.36;91.10
65470;DHT22;52067;50.710;14.492;2023-01-23T02:43:04;0.40;90.68
65470;DHT22;52067;50.710;14.492;2023-01-23T02:45:29;0.05;91.14
65470;DHT22;52067;50.710;14.492;2023-01-23T02:47:55;0.26;91.61
65470;DHT22;52067;50.710;14.492;2023-01-23T02:50:21;0.39;91.18
65470;DHT22;52067;50.710;14.492;2023-01-23T02:52:48;0.27;90.87
65470;DHT22;52067;50.710;14.492;2023-01-23T02:55:16;0.30;91.22
65470;DHT22;52067;50.710;14.492;2023-01-23T02:57:41;0.54;91.14
65470;DHT22;52067;50.710;14.492;2023-01-23T03:00:07;0.62;90.65
65470;DHT22;52067;50.710;14.492;2023-01-23T03:02:46;0.78;90.04
65470;DHT22;52067;50.710;14.492;2023-01-23T03:05:12;0.71;89.62
65470;DHT22;52067;50.710;14.492;2023-01-23T03:07:37;0.85;89.60
65470;DHT22;52067;50.710;14.492;2023-01-23T03:10:04;0.84;89.52
65470;DHT22;52067;50.710;14.492;2023-01-23T03:12:30;0.87;89.36
65470;DHT22;52067;50.710;14.492;2023-01-23T03:14:55;0.84;88.99
65470;DHT22;52067;50.710;14.492;2023-01-23T03:17:23;0.95;88.90
65470;DHT22;52067;50.710;14.492;2023-01-23T03:19:49;0.64;89.45
65470;DHT22;52067;50.710;14.492;2023-01-23T03:22:15;0.87;89.44
65470;DHT22;52067;50.710;14.492;2023-01-23T03:24:40;0.88;89.12
65470;DHT22;52067;50.710;14.492;2023-01-23T03:27:06;0.95;89.01
65470;DHT22;52067;50.710;14.492;2023-01-23T03:29:31;0.92;89.09
65470;DHT22;52067;50.710;14.492;2023-01-23T03:32:16;1.08;88.73
65470;DHT22;52067;50.710;14.492;2023-01-23T03:34:41;1.12;88.47
65470;DHT22;52067;50.710;14.492;2023-01-23T03:37:10;0.91;88.91
65470;DHT22;52067;50.710;14.492;2023-01-23T03:39:35;1.00;88.97
65470;DHT22;52067;50.710;14.492;2023-01-23T03:42:20;0.98;89.13
65470;DHT22;52067;50.710;14.492;2023-01-23T03:44:46;1.05;89.30
65470;DHT22;52067;50.710;14.492;2023-01-23T03:47:12;1.05;89.49
65470;DHT22;52067;50.710;14.492;2023-01-23T03:49:37;1.18;89.17
65470;DHT22;52067;50.710;14.492;2023-01-23T03:52:03;1.03;88.97
65470;DHT22;52067;50.710;14.492;2023-01-23T03:54:28;1.10;89.03
65470;DHT22;52067;50.710;14.492;2023-01-23T03:56:54;1.20;88.79
65470;DHT22;52067;50.710;14.492;2023-01-23T03:59:19;1.23;88.65
65470;DHT22;52067;50.710;14.492;2023-01-23T04:01:45;1.19;88.54
65470;DHT22;52067;50.710;14.492;2023-01-23T04:04:12;1.26;88.48
65470;DHT22;52067;50.710;14.492;2023-01-23T04:06:37;1.16;88.45
65470;DHT22;52067;50.710;14.492;2023-01-23T04:09:03;1.18;88.69
65470;DHT22;52067;50.710;14.492;2023-01-23T04:11:28;1.15;88.78
65470;DHT22;52067;50.710;14.492;2023-01-23T04:13:54;1.28;88.57
65470;DHT22;52067;50.710;14.492;2023-01-23T04:16:20;1.06;88.82
65470;DHT22;52067;50.710;14.492;2023-01-23T04:18:47;0.51;90.12
65470;DHT22;52067;50.710;14.492;2023-01-23T04:21:12;0.43;90.82
65470;DHT22;52067;50.710;14.492;2023-01-23T04:23:38;0.65;90.76
65470;DHT22;52067;50.710;14.492;2023-01-23T04:26:03;0.89;90.26
65470;DHT22;52067;50.710;14.492;2023-01-23T04:28:29;1.00;89.83
65470;DHT22;52067;50.710;14.492;2023-01-23T04:30:54;1.05;89.58
65470;DHT22;52067;50.710;14.492;2023-01-23T04:33:20;1.09;89.34
65470;DHT22;52067;50.710;14.492;2023-01-23T04:38:15;1.05;89.30
65470;DHT22;52067;50.710;14.492;2023-01-23T04:40:41;1.13;89.37
65470;DHT22;52067;50.710;14.492;2023-01-23T04:43:06;1.12;89.11
65470;DHT22;52067;50.710;14.492;2023-01-23T04:45:31;1.05;89.09
65470;DHT22;52067;50.710;14.492;2023-01-23T04:47:57;1.08;89.16
65470;DHT22;52067;50.710;14.492;2023-01-23T04:50:22;1.06;88.88
65470;DHT22;52067;50.710;14.492;2023-01-23T04:52:47;0.82;89.66
65470;DHT22;52067;50.710;14.492;2023-01-23T04:55:13;0.79;90.27
65470;DHT22;52067;50.710;14.492;2023-01-23T04:57:38;0.93;89.73
65470;DHT22;52067;50.710;14.492;2023-01-23T05:00:04;0.95;89.19
65470;DHT22;52067;50.710;14.492;2023-01-23T05:02:30;0.87;89.30
65470;DHT22;52067;50.710;14.492;2023-01-23T05:04:55;0.51;90.20
65470;DHT22;52067;50.710;14.492;2023-01-23T05:07:20;0.71;90.38
65470;DHT22;52067;50.710;14.492;2023-01-23T05:09:46;0.84;90.06
65470;DHT22;52067;50.710;14.492;2023-01-23T05:12:11;0.82;89.40
65470;DHT22;52067;50.710;14.492;2023-01-23T05:14:37;0.68;89.63
65470;DHT22;52067;50.710;14.492;2023-01-23T05:17:02;0.71;89.18
65470;DHT22;52067;50.710;14.492;2023-01-23T05:19:27;0.58;88.00
65470;DHT22;52067;50.710;14.492;2023-01-23T05:21:53;0.43;87.91
65470;DHT22;52067;50.710;14.492;2023-01-23T05:24:18;0.26;86.99
65470;DHT22;52067;50.710;14.492;2023-01-23T05:26:43;0.10;87.38
65470;DHT22;52067;50.710;14.492;2023-01-23T05:29:09;-0.17;87.20
65470;DHT22;52067;50.710;14.492;2023-01-23T05:31:34;-0.30;87.60
65470;DHT22;52067;50.710;14.492;2023-01-23T05:34:00;-0.48;87.66
65470;DHT22;52067;50.710;14.492;2023-01-23T05:36:25;-0.48;89.43
65470;DHT22;52067;50.710;14.492;2023-01-23T05:38:50;-0.40;87.83
65470;DHT22;52067;50.710;14.492;2023-01-23T05:41:16;-0.48;87.40
65470;DHT22;52067;50.710;14.492;2023-01-23T05:43:42;-0.55;86.92
65470;DHT22;52067;50.710;14.492;2023-01-23T05:46:07;-0.73;88.50
65470;DHT22;52067;50.710;14.492;2023-01-23T05:48:33;-0.63;89.61
65470;DHT22;52067;50.710;14.492;2023-01-23T05:51:01;-0.67;88.92
65470;DHT22;52067;50.710;14.492;2023-01-23T05:53:26;-0.62;89.40
65470;DHT22;52067;50.710;14.492;2023-01-23T05:55:52;-0.53;89.95
65470;DHT22;52067;50.710;14.492;2023-01-23T05:58:17;-0.86;89.76
65470;DHT22;52067;50.710;14.492;2023-01-23T06:00:42;-0.76;89.86
65470;DHT22;52067;50.710;14.492;2023-01-23T06:03:08;-0.96;90.60
65470;DHT22;52067;50.710;14.492;2023-01-23T06:05:33;-0.90;90.82
65470;DHT22;52067;50.710;14.492;2023-01-23T06:07:59;-0.81;89.71
65470;DHT22;52067;50.710;14.492;2023-01-23T06:10:24;-0.91;90.12
65470;DHT22;52067;50.710;14.492;2023-01-23T06:12:49;-0.86;90.47
65470;DHT22;52067;50.710;14.492;2023-01-23T06:15:15;-0.87;90.11
65470;DHT22;52067;50.710;14.492;2023-01-23T06:17:40;-1.58;89.92
65470;DHT22;52067;50.710;14.492;2023-01-23T06:20:06;-1.25;90.15
65470;DHT22;52067;50.710;14.492;2023-01-23T06:22:32;-1.73;90.44
65470;DHT22;52067;50.710;14.492;2023-01-23T06:24:57;-1.38;90.32
65470;DHT22;52067;50.710;14.492;2023-01-23T06:27:22;-1.49;90.23
65470;DHT22;52067;50.710;14.492;2023-01-23T06:29:48;-1.21;90.15
65470;DHT22;52067;50.710;14.492;2023-01-23T06:32:13;-1.32;90.52
65470;DHT22;52067;50.710;14.492;2023-01-23T06:34:38;-1.59;91.37
65470;DHT22;52067;50.710;14.492;2023-01-23T06:37:04;-1.45;91.43
65470;DHT22;52067;50.710;14.492;2023-01-23T06:39:29;-1.49;91.14
65470;DHT22;52067;50.710;14.492;2023-01-23T06:41:55;-1.18;91.20
65470;DHT22;52067;50.710;14.492;2023-01-23T06:44:21;-1.15;90.99
65470;DHT22;52067;50.710;14.492;2023-01-23T06:46:47;-0.98;90.81
65470;DHT22;52067;50.710;14.492;2023-01-23T06:49:12;-0.97;90.62
65470;DHT22;52067;50.710;14.492;2023-01-23T06:51:38;-0.84;90.64
65470;DHT22;52067;50.710;14.492;2023-01-23T06:54:03;-0.74;90.64
65470;DHT22;52067;50.710;14.492;2023-01-23T06:56:29;-1.14;90.01
65470;DHT22;52067;50.710;14.492;2023-01-23T06:58:54;-0.96;90.67
65470;DHT22;52067;50.710;14.492;2023-01-23T07:01:20;-0.86;90.38
65470;DHT22;52067;50.710;14.492;2023-01-23T07:03:45;-0.77;90.49
65470;DHT22;52067;50.710;14.492;2023-01-23T07:06:11;-0.57;90.69
65470;DHT22;52067;50.710;14.492;2023-01-23T07:08:38;-0.59;90.85
65470;DHT22;52067;50.710;14.492;2023-01-23T07:11:04;-0.35;91.09
65470;DHT22;52067;50.710;14.492;2023-01-23T07:13:30;-0.19;91.02
65470;DHT22;52067;50.710;14.492;2023-01-23T07:15:55;0.01;90.74
65470;DHT22;52067;50.710;14.492;2023-01-23T07:18:21;-0.19;90.93
65470;DHT22;52067;50.710;14.492;2023-01-23T07:20:47;0.02;90.72
65470;DHT22;52067;50.710;14.492;2023-01-23T07:23:14;0.01;90.46
65470;DHT22;52067;50.710;14.492;2023-01-23T07:25:40;0.14;90.51
65470;DHT22;52067;50.710;14.492;2023-01-23T07:28:05;0.20;90.27
65470;DHT22;52067;50.710;14.492;2023-01-23T07:30:31;0.20;89.82
65470;DHT22;52067;50.710;14.492;2023-01-23T07:32:57;0.07;89.37
65470;DHT22;52067;50.710;14.492;2023-01-23T07:35:23;0.10;89.41
65470;DHT22;52067;50.710;14.492;2023-01-23T07:37:49;0.10;89.23
65470;DHT22;52067;50.710;14.492;2023-01-23T07:40:14;0.01;88.20
65470;DHT22;52067;50.710;14.492;2023-01-23T07:42:40;0.07;88.86
65470;DHT22;52067;50.710;14.492;2023-01-23T07:45:07;0.23;88.71
65470;DHT22;52067;50.710;14.492;2023-01-23T07:47:32;0.27;87.73
65470;DHT22;52067;50.710;14.492;2023-01-23T07:49:59;0.20;87.77
65470;DHT22;52067;50.710;14.492;2023-01-23T07:52:24;0.20;87.33
65470;DHT22;52067;50.710;14.492;2023-01-23T07:54:49;0.20;86.81
65470;DHT22;52067;50.710;14.492;2023-01-23T07:57:15;-0.04;87.99
65470;DHT22;52067;50.710;14.492;2023-01-23T07:59:40;0.02;88.00
65470;DHT22;52067;50.710;14.492;2023-01-23T08:02:08;-0.18;85.90
65470;DHT22;52067;50.710;14.492;2023-01-23T08:04:34;0.07;85.55
65470;DHT22;52067;50.710;14.492;2023-01-23T08:07:00;0.27;85.35
65470;DHT22;52067;50.710;14.492;2023-01-23T08:09:25;0.05;86.09
65470;DHT22;52067;50.710;14.492;2023-01-23T08:11:51;0.07;87.15
65470;DHT22;52067;50.710;14.492;2023-01-23T08:14:16;0.12;87.54
65470;DHT22;52067;50.710;14.492;2023-01-23T08:16:42;-0.02;86.25
65470;DHT22;52067;50.710;14.492;2023-01-23T08:19:07;-1.17;85.84
65470;DHT22;52067;50.710;14.492;2023-01-23T08:21:33;-0.63;86.29
65470;DHT22;52067;50.710;14.492;2023-01-23T08:24:02;-0.14;87.21
65470;DHT22;52067;50.710;14.492;2023-01-23T08:26:29;-0.09;87.35
65470;DHT22;52067;50.710;14.492;2023-01-23T08:28:54;-0.12;84.77
65470;DHT22;52067;50.710;14.492;2023-01-23T08:31:20;-0.26;86.42
65470;DHT22;52067;50.710;14.492;2023-01-23T08:33:45;-0.17;85.90
65470;DHT22;52067;50.710;14.492;2023-01-23T08:36:11;0.12;84.61
65470;DHT22;52067;50.710;14.492;2023-01-23T08:38:37;-0.49;83.94
65470;DHT22;52067;50.710;14.492;2023-01-23T08:41:03;0.12;84.30
65470;DHT22;52067;50.710;14.492;2023-01-23T08:43:29;0.95;82.42
65470;DHT22;52067;50.710;14.492;2023-01-23T08:45:56;3.03;76.38
65470;DHT22;52067;50.710;14.492;2023-01-23T08:48:23;4.53;71.67
65470;DHT22;52067;50.710;14.492;2023-01-23T08:50:49;4.80;68.87
65470;DHT22;52067;50.710;14.492;2023-01-23T08:53:16;3.40;71.57
65470;DHT22;52067;50.710;14.492;2023-01-23T08:55:41;2.74;74.09
65470;DHT22;52067;50.710;14.492;2023-01-23T08:58:08;2.35;76.65
65470;DHT22;52067;50.710;14.492;2023-01-23T09:00:37;1.32;80.39
65470;DHT22;52067;50.710;14.492;2023-01-23T09:03:02;2.11;77.97
65470;DHT22;52067;50.710;14.492;2023-01-23T09:05:28;3.45;76.64
65470;DHT22;52067;50.710;14.492;2023-01-23T09:07:55;4.44;73.26
65470;DHT22;52067;50.710;14.492;2023-01-23T09:10:21;5.44;71.11
65470;DHT22;52067;50.710;14.492;2023-01-23T09:12:50;5.21;70.46
65470;DHT22;52067;50.710;14.492;2023-01-23T09:15:15;5.37;68.37
65470;DHT22;52067;50.710;14.492;2023-01-23T09:17:41;3.49;77.56
65470;DHT22;52067;50.710;14.492;2023-01-23T09:20:07;3.89;74.52
65470;DHT22;52067;50.710;14.492;2023-01-23T09:22:33;4.75;71.55
65470;DHT22;52067;50.710;14.492;2023-01-23T09:24:59;4.87;72.27
65470;DHT22;52067;50.710;14.492;2023-01-23T09:27:24;4.48;73.43
65470;DHT22;52067;50.710;14.492;2023-01-23T09:29:49;4.32;73.99
65470;DHT22;52067;50.710;14.492;2023-01-23T09:32:15;4.24;73.37
65470;DHT22;52067;50.710;14.492;2023-01-23T09:34:41;4.17;74.15
65470;DHT22;52067;50.710;14.492;2023-01-23T09:37:06;3.73;74.58
65470;DHT22;52067;50.710;14.492;2023-01-23T09:39:32;3.22;76.36
65470;DHT22;52067;50.710;14.492;2023-01-23T09:41:57;3.00;76.98
65470;DHT22;52067;50.710;14.492;2023-01-23T09:44:38;3.05;78.75
65470;DHT22;52067;50.710;14.492;2023-01-23T09:47:16;3.19;77.51
65470;DHT22;52067;50.710;14.492;2023-01-23T09:49:56;3.14;77.79
65470;DHT22;52067;50.710;14.492;2023-01-23T09:52:30;2.42;82.73
65470;DHT22;52067;50.710;14.492;2023-01-23T09:55:11;2.53;80.34
65470;DHT22;52067;50.710;14.492;2023-01-23T09:57:57;3.07;80.45
65470;DHT22;52067;50.710;14.492;2023-01-23T10:00:32;3.40;77.05
65470;DHT22;52067;50.710;14.492;2023-01-23T10:03:04;3.63;77.28
65470;DHT22;52067;50.710;14.492;2023-01-23T10:11:22;3.91;76.34
65470;DHT22;52067;50.710;14.492;2023-01-23T10:22:48;5.03;71.77
65470;DHT22;52067;50.710;14.492;2023-01-23T10:25:19;4.13;75.11
65470;DHT22;52067;50.710;14.492;2023-01-23T10:27:47;3.76;77.27
65470;DHT22;52067;50.710;14.492;2023-01-23T10:30:29;3.48;78.52
65470;DHT22;52067;50.710;14.492;2023-01-23T10:33:00;3.46;79.05
65470;DHT22;52067;50.710;14.492;2023-01-23T10:35:35;3.05;80.22
65470;DHT22;52067;50.710;14.492;2023-01-23T10:40:55;3.40;80.16
65470;DHT22;52067;50.710;14.492;2023-01-23T10:43:44;4.35;77.95
65470;DHT22;52067;50.710;14.492;2023-01-23T10:48:46;6.29;70.25
65470;DHT22;52067;50.710;14.492;2023-01-23T10:54:10;6.74;68.07
65470;DHT22;52067;50.710;14.492;2023-01-23T10:56:45;7.50;65.68
65470;DHT22;52067;50.710;14.492;2023-01-23T10:59:23;8.37;63.34
65470;DHT22;52067;50.710;14.492;2023-01-23T11:04:40;9.08;60.07
65470;DHT22;52067;50.710;14.492;2023-01-23T11:07:14;10.17;57.28
65470;DHT22;52067;50.710;14.492;2023-01-23T11:09:50;8.40;64.18
65470;DHT22;52067;50.710;14.492;2023-01-23T11:12:19;9.22;59.31
65470;DHT22;52067;50.710;14.492;2023-01-23T11:14:45;9.93;57.76
65470;DHT22;52067;50.710;14.492;2023-01-23T11:17:23;9.16;60.46
65470;DHT22;52067;50.710;14.492;2023-01-23T11:19:56;7.23;66.53
65470;DHT22;52067;50.710;14.492;2023-01-23T11:22:37;8.50;61.60
65470;DHT22;52067;50.710;14.492;2023-01-23T11:25:26;7.03;67.38
65470;DHT22;52067;50.710;14.492;2023-01-23T11:28:01;8.18;63.46
65470;DHT22;52067;50.710;14.492;2023-01-23T11:30:39;9.70;58.97
65470;DHT22;52067;50.710;14.492;2023-01-23T11:33:13;10.10;56.90
65470;DHT22;52067;50.710;14.492;2023-01-23T11:36:02;9.93;57.09
65470;DHT22;52067;50.710;14.492;2023-01-23T11:38:40;10.65;55.81
65470;DHT22;52067;50.710;14.492;2023-01-23T11:41:10;9.46;55.71
65470;DHT22;52067;50.710;14.492;2023-01-23T11:43:36;7.05;65.78
65470;DHT22;52067;50.710;14.492;2023-01-23T11:46:21;5.86;70.19
65470;DHT22;52067;50.710;14.492;2023-01-23T11:49:11;6.10;69.98
65470;DHT22;52067;50.710;14.492;2023-01-23T11:57:52;9.93;56.75
65470;DHT22;52067;50.710;14.492;2023-01-23T12:00:42;10.44;55.08
65470;DHT22;52067;50.710;14.492;2023-01-23T12:11:20;9.46;55.03
65470;DHT22;52067;50.710;14.492;2023-01-23T12:14:09;7.23;62.12
65470;DHT22;52067;50.710;14.492;2023-01-23T12:27:45;7.68;61.18
65470;DHT22;52067;50.710;14.492;2023-01-23T12:36:12;10.53;53.73
65470;DHT22;52067;50.710;14.492;2023-01-23T12:41:37;11.47;49.75
65470;DHT22;52067;50.710;14.492;2023-01-23T12:44:13;11.28;50.44
65470;DHT22;52067;50.710;14.492;2023-01-23T12:47:00;9.98;53.21
65470;DHT22;52067;50.710;14.492;2023-01-23T12:49:41;8.37;58.54
65470;DHT22;52067;50.710;14.492;2023-01-23T12:52:15;8.88;59.21
65470;DHT22;52067;50.710;14.492;2023-01-23T12:55:05;9.57;56.25
65470;DHT22;52067;50.710;14.492;2023-01-23T12:57:31;7.95;60.65
65470;DHT22;52067;50.710;14.492;2023-01-23T13:11:10;5.31;70.05
65470;DHT22;52067;50.710;14.492;2023-01-23T13:13:56;5.17;69.65
65470;DHT22;52067;50.710;14.492;2023-01-23T13:16:27;5.04;70.15
65470;DHT22;52067;50.710;14.492;2023-01-23T13:18:58;4.87;72.28
65470;DHT22;52067;50.710;14.492;2023-01-23T13:24:30;4.25;74.35
65470;DHT22;52067;50.710;14.492;2023-01-23T13:33:18;3.11;79.49
65470;DHT22;52067;50.710;14.492;2023-01-23T13:43:54;3.43;79.49
65470;DHT22;52067;50.710;14.492;2023-01-23T13:46:56;3.08;80.53
65470;DHT22;52067;50.710;14.492;2023-01-23T13:50:29;3.24;80.70
65470;DHT22;52067;50.710;14.492;2023-01-23T13:52:26;3.25;80.09
65470;DHT22;52067;50.710;14.492;2023-01-23T13:55:26;3.04;80.93
65470;DHT22;52067;50.710;14.492;2023-01-23T13:58:14;2.60;82.68
65470;DHT22;52067;50.710;14.492;2023-01-23T14:00:42;2.72;82.10
65470;DHT22;52067;50.710;14.492;2023-01-23T14:03:33;2.91;82.44
65470;DHT22;52067;50.710;14.492;2023-01-23T14:06:18;2.97;81.83
65470;DHT22;52067;50.710;14.492;2023-01-23T14:08:54;2.74;82.48
65470;DHT22;52067;50.710;14.492;2023-01-23T14:11:20;2.95;81.42
65470;DHT22;52067;50.710;14.492;2023-01-23T14:13:47;3.11;80.83
65470;DHT22;52067;50.710;14.492;2023-01-23T14:16:15;3.21;80.41
65470;DHT22;52067;50.710;14.492;2023-01-23T14:18:50;3.17;80.75
65470;DHT22;52067;50.710;14.492;2023-01-23T14:21:24;3.17;80.75
65470;DHT22;52067;50.710;14.492;2023-01-23T14:23:52;2.81;82.14
65470;DHT22;52067;50.710;14.492;2023-01-23T14:26:27;2.86;81.46
65470;DHT22;52067;50.710;14.492;2023-01-23T14:28:57;2.60;82.42
65470;DHT22;52067;50.710;14.492;2023-01-23T14:31:33;2.60;83.24
65470;DHT22;52067;50.710;14.492;2023-01-23T14:34:01;2.60;82.91
65470;DHT22;52067;50.710;14.492;2023-01-23T14:36:29;2.74;82.42
65470;DHT22;52067;50.710;14.492;2023-01-23T14:38:56;2.73;82.10
65470;DHT22;52067;50.710;14.492;2023-01-23T14:41:26;2.53;83.06
65470;DHT22;52067;50.710;14.492;2023-01-23T14:43:55;2.39;83.31
65470;DHT22;52067;50.710;14.492;2023-01-23T14:46:32;2.35;83.95
65470;DHT22;52067;50.710;14.492;2023-01-23T14:48:58;2.30;83.98
65470;DHT22;52067;50.710;14.492;2023-01-23T14:51:25;2.16;84.46
65470;DHT22;52067;50.710;14.492;2023-01-23T14:54:02;2.19;84.53
65470;DHT22;52067;50.710;14.492;2023-01-23T14:56:32;2.25;84.37
65470;DHT22;52067;50.710;14.492;2023-01-23T14:59:01;2.33;84.24
65470;DHT22;52067;50.710;14.492;2023-01-23T15:01:27;2.22;84.74
65470;DHT22;52067;50.710;14.492;2023-01-23T15:04:05;2.32;84.30
65470;DHT22;52067;50.710;14.492;2023-01-23T15:06:32;2.21;84.67
65470;DHT22;52067;50.710;14.492;2023-01-23T15:09:15;2.25;84.23
65470;DHT22;52067;50.710;14.492;2023-01-23T15:11:41;2.18;84.40
65470;DHT22;52067;50.710;14.492;2023-01-23T15:14:25;2.21;84.50
65470;DHT22;52067;50.710;14.492;2023-01-23T15:16:58;2.24;84.41
65470;DHT22;52067;50.710;14.492;2023-01-23T15:19:25;2.14;84.41
65470;DHT22;52067;50.710;14.492;2023-01-23T15:22:03;2.15;84.38
65470;DHT22;52067;50.710;14.492;2023-01-23T15:24:29;2.15;84.49
65470;DHT22;52067;50.710;14.492;2023-01-23T15:26:59;2.21;84.42
65470;DHT22;52067;50.710;14.492;2023-01-23T15:29:24;2.04;85.33
65470;DHT22;52067;50.710;14.492;2023-01-23T15:31:53;2.08;85.06
65470;DHT22;52067;50.710;14.492;2023-01-23T15:34:22;2.11;84.64
65470;DHT22;52067;50.710;14.492;2023-01-23T15:36:52;2.01;85.05
65470;DHT22;52067;50.710;14.492;2023-01-23T15:42:00;1.98;85.58
65470;DHT22;52067;50.710;14.492;2023-01-23T15:44:30;1.94;85.63
65470;DHT22;52067;50.710;14.492;2023-01-23T15:46:56;1.97;85.78
65470;DHT22;52067;50.710;14.492;2023-01-23T15:49:28;1.87;85.97
65470;DHT22;52067;50.710;14.492;2023-01-23T15:51:56;1.98;85.42
65470;DHT22;52067;50.710;14.492;2023-01-23T15:54:26;1.73;86.21
65470;DHT22;52067;50.710;14.492;2023-01-23T15:56:52;1.81;85.86
65470;DHT22;52067;50.710;14.492;2023-01-23T15:59:18;1.75;86.03
65470;DHT22;52067;50.710;14.492;2023-01-23T16:01:44;1.73;86.17
65470;DHT22;52067;50.710;14.492;2023-01-23T16:04:10;1.82;86.08
65470;DHT22;52067;50.710;14.492;2023-01-23T16:06:36;1.74;86.10
65470;DHT22;52067;50.710;14.492;2023-01-23T16:09:02;1.75;86.20
65470;DHT22;52067;50.710;14.492;2023-01-23T16:11:32;1.66;86.55
65470;DHT22;52067;50.710;14.492;2023-01-23T16:13:58;1.67;86.68
65470;DHT22;52067;50.710;14.492;2023-01-23T16:16:24;1.70;86.34
65470;DHT22;52067;50.710;14.492;2023-01-23T16:18:49;1.77;86.35
65470;DHT22;52067;50.710;14.492;2023-01-23T16:21:20;1.64;86.44
65470;DHT22;52067;50.710;14.492;2023-01-23T16:23:49;1.75;86.56
65470;DHT22;52067;50.710;14.492;2023-01-23T16:26:23;1.64;86.62
65470;DHT22;52067;50.710;14.492;2023-01-23T16:28:49;1.64;86.43
65470;DHT22;52067;50.710;14.492;2023-01-23T16:31:15;1.59;86.76
65470;DHT22;52067;50.710;14.492;2023-01-23T16:33:42;1.63;86.60
65470;DHT22;52067;50.710;14.492;2023-01-23T16:36:18;1.61;86.59
65470;DHT22;52067;50.710;14.492;2023-01-23T16:38:50;1.66;86.51
65470;DHT22;52067;50.710;14.492;2023-01-23T16:41:17;1.81;86.30
65470;DHT22;52067;50.710;14.492;2023-01-23T16:43:43;1.70;86.10
65470;DHT22;52067;50.710;14.492;2023-01-23T16:46:09;1.80;86.47
65470;DHT22;52067;50.710;14.492;2023-01-23T16:48:35;1.88;85.75
65470;DHT22;52067;50.710;14.492;2023-01-23T16:51:13;1.80;85.43
65470;DHT22;52067;50.710;14.492;2023-01-23T16:53:43;1.84;86.17
65470;DHT22;52067;50.710;14.492;2023-01-23T16:56:34;2.09;85.09
65470;DHT22;52067;50.710;14.492;2023-01-23T16:59:03;2.11;84.53
65470;DHT22;52067;50.710;14.492;2023-01-23T17:01:29;2.05;84.99
65470;DHT22;52067;50.710;14.492;2023-01-23T17:03:58;1.93;85.01
65470;DHT22;52067;50.710;14.492;2023-01-23T17:06:24;1.93;85.51
65470;DHT22;52067;50.710;14.492;2023-01-23T17:08:49;2.24;85.08
65470;DHT22;52067;50.710;14.492;2023-01-23T17:11:19;2.29;84.15
65470;DHT22;52067;50.710;14.492;2023-01-23T17:13:46;2.28;84.75
65470;DHT22;52067;50.710;14.492;2023-01-23T17:16:11;1.73;85.08
65470;DHT22;52067;50.710;14.492;2023-01-23T17:18:37;1.64;86.15